Port Severn, Canada
Current Conditions -  °F | °C
As of 6:00 PM on Saturday 25 Oct 2014 (Local Time) from CYQA Reporting Station
Scattered Clouds Scattered Clouds  
Wind Chill: 54°   Ceiling: Unl
Heat Index: 54°   Visibility: 9mi
Dew Point: 43°   Wind: 13mph
Humidity: 67%   Direction: 270°W
Pressure: 29.54"   Gusts: 28mph
Location:  44.8°N, 79.72°W
Report Text: CYQA 252200Z AUTO 27011G24KT 9SM FEW034 SCT055 12/06 A2954 RMK SLP009 DENSITY ALT 1200FT
Loading
Personal Weather Stations






























Interactive Weather Map
Tropical Storm Tracking
New forecast layout! Learn more

10-Day Weather Forecast

Advertisements
Track Severe Weather on mobile